sensor_id;sensor_type;location;lat;lon;timestamp;temperature;humidity
4081;DHT22;2055;50.074;8.436;2024-02-21T00:00:55;6.80;1.00
4081;DHT22;2055;50.074;8.436;2024-02-21T00:03:20;6.80;1.00
4081;DHT22;2055;50.074;8.436;2024-02-21T00:05:46;6.80;1.00
4081;DHT22;2055;50.074;8.436;2024-02-21T00:08:11;6.70;1.00
4081;DHT22;2055;50.074;8.436;2024-02-21T00:10:37;6.70;1.00
4081;DHT22;2055;50.074;8.436;2024-02-21T00:13:03;6.80;1.00
4081;DHT22;2055;50.074;8.436;2024-02-21T00:15:28;6.70;57.20
4081;DHT22;2055;50.074;8.436;2024-02-21T00:17:54;6.70;98.50
4081;DHT22;2055;50.074;8.436;2024-02-21T00:20:20;6.70;99.90
4081;DHT22;2055;50.074;8.436;2024-02-21T00:22:45;6.80;99.90
4081;DHT22;2055;50.074;8.436;2024-02-21T00:25:11;9.20;99.90
4081;DHT22;2055;50.074;8.436;2024-02-21T00:27:37;7.00;99.90
4081;DHT22;2055;50.074;8.436;2024-02-21T00:30:04;6.70;99.90
4081;DHT22;2055;50.074;8.436;2024-02-21T00:32:30;6.70;99.90
4081;DHT22;2055;50.074;8.436;2024-02-21T00:34:57;9.20;99.90
4081;DHT22;2055;50.074;8.436;2024-02-21T00:37:23;6.80;99.90
4081;DHT22;2055;50.074;8.436;2024-02-21T00:39:48;6.70;99.90
4081;DHT22;2055;50.074;8.436;2024-02-21T00:42:14;6.40;1.00
4081;DHT22;2055;50.074;8.436;2024-02-21T00:44:39;6.60;1.00
4081;DHT22;2055;50.074;8.436;2024-02-21T00:47:05;6.60;1.00
4081;DHT22;2055;50.074;8.436;2024-02-21T00:49:30;6.70;1.00
4081;DHT22;2055;50.074;8.436;2024-02-21T00:51:56;6.60;1.00
4081;DHT22;2055;50.074;8.436;2024-02-21T00:54:21;6.60;1.00
4081;DHT22;2055;50.074;8.436;2024-02-21T00:56:48;6.60;1.00
4081;DHT22;2055;50.074;8.436;2024-02-21T00:59:13;6.60;1.00
4081;DHT22;2055;50.074;8.436;2024-02-21T01:01:39;6.60;15.10
4081;DHT22;2055;50.074;8.436;2024-02-21T01:04:08;6.70;1.00
4081;DHT22;2055;50.074;8.436;2024-02-21T01:06:34;6.70;37.40
4081;DHT22;2055;50.074;8.436;2024-02-21T01:09:00;6.70;48.70
4081;DHT22;2055;50.074;8.436;2024-02-21T01:11:25;6.70;59.60
4081;DHT22;2055;50.074;8.436;2024-02-21T01:13:51;6.70;79.00
4081;DHT22;2055;50.074;8.436;2024-02-21T01:16:16;6.70;22.40
4081;DHT22;2055;50.074;8.436;2024-02-21T01:18:42;6.70;7.00
4081;DHT22;2055;50.074;8.436;2024-02-21T01:21:07;6.70;35.70
4081;DHT22;2055;50.074;8.436;2024-02-21T01:23:36;6.70;12.20
4081;DHT22;2055;50.074;8.436;2024-02-21T01:26:03;6.80;99.90
4081;DHT22;2055;50.074;8.436;2024-02-21T01:28:29;6.80;99.90
4081;DHT22;2055;50.074;8.436;2024-02-21T01:30:55;6.70;30.80
4081;DHT22;2055;50.074;8.436;2024-02-21T01:33:21;6.80;99.90
4081;DHT22;2055;50.074;8.436;2024-02-21T01:35:46;6.70;67.80
4081;DHT22;2055;50.074;8.436;2024-02-21T01:38:13;6.70;99.90
4081;DHT22;2055;50.074;8.436;2024-02-21T01:40:38;6.60;99.90
4081;DHT22;2055;50.074;8.436;2024-02-21T01:43:15;6.60;99.90
4081;DHT22;2055;50.074;8.436;2024-02-21T01:45:41;6.60;99.90
4081;DHT22;2055;50.074;8.436;2024-02-21T01:48:07;6.50;99.60
4081;DHT22;2055;50.074;8.436;2024-02-21T01:50:33;6.50;99.90
4081;DHT22;2055;50.074;8.436;2024-02-21T01:52:59;6.50;99.90
4081;DHT22;2055;50.074;8.436;2024-02-21T01:55:25;6.40;99.90
4081;DHT22;2055;50.074;8.436;2024-02-21T01:57:51;6.40;99.90
4081;DHT22;2055;50.074;8.436;2024-02-21T02:00:17;6.30;99.90
4081;DHT22;2055;50.074;8.436;2024-02-21T02:02:43;6.20;99.90
4081;DHT22;2055;50.074;8.436;2024-02-21T02:05:10;6.30;99.90
4081;DHT22;2055;50.074;8.436;2024-02-21T02:07:36;6.20;99.90
4081;DHT22;2055;50.074;8.436;2024-02-21T02:10:02;6.30;99.90
4081;DHT22;2055;50.074;8.436;2024-02-21T02:12:27;6.20;99.90
4081;DHT22;2055;50.074;8.436;2024-02-21T02:15:00;6.20;99.90
4081;DHT22;2055;50.074;8.436;2024-02-21T02:17:26;6.30;99.90
4081;DHT22;2055;50.074;8.436;2024-02-21T02:19:51;6.20;99.90
4081;DHT22;2055;50.074;8.436;2024-02-21T02:22:22;6.20;99.90
4081;DHT22;2055;50.074;8.436;2024-02-21T02:24:51;6.00;99.90
4081;DHT22;2055;50.074;8.436;2024-02-21T02:27:16;6.00;99.90
4081;DHT22;2055;50.074;8.436;2024-02-21T02:29:42;5.90;99.90
4081;DHT22;2055;50.074;8.436;2024-02-21T02:32:07;5.90;99.90
4081;DHT22;2055;50.074;8.436;2024-02-21T02:34:34;5.90;99.90
4081;DHT22;2055;50.074;8.436;2024-02-21T02:36:59;6.00;99.90
4081;DHT22;2055;50.074;8.436;2024-02-21T02:39:25;5.90;99.90
4081;DHT22;2055;50.074;8.436;2024-02-21T02:41:50;5.90;99.90
4081;DHT22;2055;50.074;8.436;2024-02-21T02:44:16;5.80;99.90
4081;DHT22;2055;50.074;8.436;2024-02-21T02:46:42;5.80;99.90
4081;DHT22;2055;50.074;8.436;2024-02-21T02:49:08;5.80;99.90
4081;DHT22;2055;50.074;8.436;2024-02-21T02:51:33;5.80;99.90
4081;DHT22;2055;50.074;8.436;2024-02-21T02:53:59;5.90;99.90
4081;DHT22;2055;50.074;8.436;2024-02-21T02:56:24;5.90;99.90
4081;DHT22;2055;50.074;8.436;2024-02-21T02:58:50;5.90;99.90
4081;DHT22;2055;50.074;8.436;2024-02-21T03:01:15;5.90;99.90
4081;DHT22;2055;50.074;8.436;2024-02-21T03:03:41;7.60;99.90
4081;DHT22;2055;50.074;8.436;2024-02-21T03:06:06;6.00;99.90
4081;DHT22;2055;50.074;8.436;2024-02-21T03:08:32;6.10;99.90
4081;DHT22;2055;50.074;8.436;2024-02-21T03:10:58;6.10;99.90
4081;DHT22;2055;50.074;8.436;2024-02-21T03:13:25;6.20;99.90
4081;DHT22;2055;50.074;8.436;2024-02-21T03:15:52;6.30;99.90
4081;DHT22;2055;50.074;8.436;2024-02-21T03:18:17;6.30;99.90
4081;DHT22;2055;50.074;8.436;2024-02-21T03:20:43;6.40;99.90
4081;DHT22;2055;50.074;8.436;2024-02-21T03:23:08;6.40;99.90
4081;DHT22;2055;50.074;8.436;2024-02-21T03:25:34;6.40;99.90
4081;DHT22;2055;50.074;8.436;2024-02-21T03:27:59;6.50;99.90
4081;DHT22;2055;50.074;8.436;2024-02-21T03:30:25;6.50;99.90
4081;DHT22;2055;50.074;8.436;2024-02-21T03:32:51;6.50;99.90
4081;DHT22;2055;50.074;8.436;2024-02-21T03:35:16;6.50;99.90
4081;DHT22;2055;50.074;8.436;2024-02-21T03:37:42;6.50;99.90
4081;DHT22;2055;50.074;8.436;2024-02-21T03:40:10;6.50;99.90
4081;DHT22;2055;50.074;8.436;2024-02-21T03:42:36;6.60;99.90
4081;DHT22;2055;50.074;8.436;2024-02-21T03:45:01;6.50;99.90
4081;DHT22;2055;50.074;8.436;2024-02-21T03:47:27;6.50;99.90
4081;DHT22;2055;50.074;8.436;2024-02-21T03:49:52;6.50;99.90
4081;DHT22;2055;50.074;8.436;2024-02-21T03:52:18;6.50;99.90
4081;DHT22;2055;50.074;8.436;2024-02-21T03:54:43;6.40;99.90
4081;DHT22;2055;50.074;8.436;2024-02-21T03:57:10;6.60;99.90
4081;DHT22;2055;50.074;8.436;2024-02-21T03:59:35;6.60;99.90
4081;DHT22;2055;50.074;8.436;2024-02-21T04:02:01;6.60;99.90
4081;DHT22;2055;50.074;8.436;2024-02-21T04:04:29;6.60;99.90
4081;DHT22;2055;50.074;8.436;2024-02-21T04:06:54;6.60;99.90
4081;DHT22;2055;50.074;8.436;2024-02-21T04:09:20;6.70;99.90
4081;DHT22;2055;50.074;8.436;2024-02-21T04:11:45;6.60;99.90
4081;DHT22;2055;50.074;8.436;2024-02-21T04:14:11;6.60;99.90
4081;DHT22;2055;50.074;8.436;2024-02-21T04:16:37;6.60;99.90
4081;DHT22;2055;50.074;8.436;2024-02-21T04:19:03;6.60;99.90
4081;DHT22;2055;50.074;8.436;2024-02-21T04:21:28;6.60;99.90
4081;DHT22;2055;50.074;8.436;2024-02-21T04:23:54;6.50;99.90
4081;DHT22;2055;50.074;8.436;2024-02-21T04:26:19;6.60;99.90
4081;DHT22;2055;50.074;8.436;2024-02-21T04:28:45;6.60;99.90
4081;DHT22;2055;50.074;8.436;2024-02-21T04:31:11;6.60;99.90
4081;DHT22;2055;50.074;8.436;2024-02-21T04:33:37;6.60;99.90
4081;DHT22;2055;50.074;8.436;2024-02-21T04:36:02;6.60;99.90
4081;DHT22;2055;50.074;8.436;2024-02-21T04:38:28;6.60;99.90
4081;DHT22;2055;50.074;8.436;2024-02-21T04:40:55;6.50;99.90
4081;DHT22;2055;50.074;8.436;2024-02-21T04:43:20;6.50;99.90
4081;DHT22;2055;50.074;8.436;2024-02-21T04:45:46;6.50;99.90
4081;DHT22;2055;50.074;8.436;2024-02-21T04:48:11;6.50;99.90
4081;DHT22;2055;50.074;8.436;2024-02-21T04:50:37;6.40;99.90
4081;DHT22;2055;50.074;8.436;2024-02-21T04:53:02;6.40;99.90
4081;DHT22;2055;50.074;8.436;2024-02-21T04:55:28;6.40;99.90
4081;DHT22;2055;50.074;8.436;2024-02-21T04:57:53;6.40;99.90
4081;DHT22;2055;50.074;8.436;2024-02-21T05:00:19;6.30;99.90
4081;DHT22;2055;50.074;8.436;2024-02-21T05:02:45;6.30;99.90
4081;DHT22;2055;50.074;8.436;2024-02-21T05:05:10;6.20;99.90
4081;DHT22;2055;50.074;8.436;2024-02-21T05:07:36;6.20;99.90
4081;DHT22;2055;50.074;8.436;2024-02-21T05:10:01;6.10;99.90
4081;DHT22;2055;50.074;8.436;2024-02-21T05:12:27;6.20;99.90
4081;DHT22;2055;50.074;8.436;2024-02-21T05:14:53;6.10;99.90
4081;DHT22;2055;50.074;8.436;2024-02-21T05:17:18;6.10;99.90
4081;DHT22;2055;50.074;8.436;2024-02-21T05:19:44;6.20;99.90
4081;DHT22;2055;50.074;8.436;2024-02-21T05:22:09;6.20;99.90
4081;DHT22;2055;50.074;8.436;2024-02-21T05:24:35;6.20;99.90
4081;DHT22;2055;50.074;8.436;2024-02-21T05:27:01;6.20;99.90
4081;DHT22;2055;50.074;8.436;2024-02-21T05:29:27;6.30;99.90
4081;DHT22;2055;50.074;8.436;2024-02-21T05:31:56;6.30;99.90
4081;DHT22;2055;50.074;8.436;2024-02-21T05:34:22;6.30;99.90
4081;DHT22;2055;50.074;8.436;2024-02-21T05:36:48;6.30;99.90
4081;DHT22;2055;50.074;8.436;2024-02-21T05:39:17;6.30;99.90
4081;DHT22;2055;50.074;8.436;2024-02-21T05:41:43;6.30;99.90
4081;DHT22;2055;50.074;8.436;2024-02-21T05:44:08;6.30;99.90
4081;DHT22;2055;50.074;8.436;2024-02-21T05:46:34;6.30;99.90
4081;DHT22;2055;50.074;8.436;2024-02-21T05:49:00;6.30;99.90
4081;DHT22;2055;50.074;8.436;2024-02-21T05:51:26;6.30;99.90
4081;DHT22;2055;50.074;8.436;2024-02-21T05:53:51;6.20;99.90
4081;DHT22;2055;50.074;8.436;2024-02-21T05:56:17;6.20;99.90
4081;DHT22;2055;50.074;8.436;2024-02-21T05:58:43;6.20;99.90
4081;DHT22;2055;50.074;8.436;2024-02-21T06:01:10;6.20;99.90
4081;DHT22;2055;50.074;8.436;2024-02-21T06:03:35;6.10;99.90
4081;DHT22;2055;50.074;8.436;2024-02-21T06:06:04;6.10;99.90
4081;DHT22;2055;50.074;8.436;2024-02-21T06:08:30;6.10;99.90
4081;DHT22;2055;50.074;8.436;2024-02-21T06:10:56;6.00;99.90
4081;DHT22;2055;50.074;8.436;2024-02-21T06:13:23;6.00;99.90
4081;DHT22;2055;50.074;8.436;2024-02-21T06:15:49;5.90;99.90
4081;DHT22;2055;50.074;8.436;2024-02-21T06:18:16;6.00;99.90
4081;DHT22;2055;50.074;8.436;2024-02-21T06:20:42;5.90;99.90
4081;DHT22;2055;50.074;8.436;2024-02-21T06:23:08;6.00;99.90
4081;DHT22;2055;50.074;8.436;2024-02-21T06:25:34;7.10;99.90
4081;DHT22;2055;50.074;8.436;2024-02-21T06:28:00;5.70;99.90
4081;DHT22;2055;50.074;8.436;2024-02-21T06:30:25;5.90;99.90
4081;DHT22;2055;50.074;8.436;2024-02-21T06:32:52;5.90;99.90
4081;DHT22;2055;50.074;8.436;2024-02-21T06:35:18;5.80;99.90
4081;DHT22;2055;50.074;8.436;2024-02-21T06:37:44;5.80;99.90
4081;DHT22;2055;50.074;8.436;2024-02-21T06:40:16;5.70;94.30
4081;DHT22;2055;50.074;8.436;2024-02-21T06:42:41;5.80;99.90
4081;DHT22;2055;50.074;8.436;2024-02-21T06:45:07;8.10;99.90
4081;DHT22;2055;50.074;8.436;2024-02-21T06:47:32;5.70;99.90
4081;DHT22;2055;50.074;8.436;2024-02-21T06:49:58;5.80;23.30
4081;DHT22;2055;50.074;8.436;2024-02-21T06:52:23;5.80;97.60
4081;DHT22;2055;50.074;8.436;2024-02-21T06:54:50;5.70;1.00
4081;DHT22;2055;50.074;8.436;2024-02-21T06:57:15;5.80;62.70
4081;DHT22;2055;50.074;8.436;2024-02-21T06:59:41;5.80;42.10
4081;DHT22;2055;50.074;8.436;2024-02-21T07:02:07;5.80;23.90
4081;DHT22;2055;50.074;8.436;2024-02-21T07:04:33;5.80;6.60
4081;DHT22;2055;50.074;8.436;2024-02-21T07:06:59;5.90;1.00
4081;DHT22;2055;50.074;8.436;2024-02-21T07:09:24;7.80;1.00
4081;DHT22;2055;50.074;8.436;2024-02-21T07:11:50;5.90;1.00
4081;DHT22;2055;50.074;8.436;2024-02-21T07:14:15;6.00;1.00
4081;DHT22;2055;50.074;8.436;2024-02-21T07:16:41;6.10;1.00
4081;DHT22;2055;50.074;8.436;2024-02-21T07:19:06;6.10;1.00
4081;DHT22;2055;50.074;8.436;2024-02-21T07:21:32;6.10;1.00
4081;DHT22;2055;50.074;8.436;2024-02-21T07:23:58;6.20;1.00
4081;DHT22;2055;50.074;8.436;2024-02-21T07:26:24;6.30;1.00
4081;DHT22;2055;50.074;8.436;2024-02-21T07:28:49;6.30;1.00
4081;DHT22;2055;50.074;8.436;2024-02-21T07:31:15;6.30;1.00
4081;DHT22;2055;50.074;8.436;2024-02-21T07:33:41;6.30;1.00
4081;DHT22;2055;50.074;8.436;2024-02-21T07:36:11;6.40;1.00
4081;DHT22;2055;50.074;8.436;2024-02-21T07:38:37;6.60;1.00
4081;DHT22;2055;50.074;8.436;2024-02-21T07:41:02;6.50;1.00
4081;DHT22;2055;50.074;8.436;2024-02-21T07:43:29;6.60;1.00
4081;DHT22;2055;50.074;8.436;2024-02-21T07:45:55;6.60;1.00
4081;DHT22;2055;50.074;8.436;2024-02-21T07:48:21;6.70;1.00
4081;DHT22;2055;50.074;8.436;2024-02-21T07:50:52;6.70;99.90
4081;DHT22;2055;50.074;8.436;2024-02-21T07:53:19;6.80;99.90
4081;DHT22;2055;50.074;8.436;2024-02-21T07:55:45;6.80;99.90
4081;DHT22;2055;50.074;8.436;2024-02-21T07:58:10;6.80;99.90
4081;DHT22;2055;50.074;8.436;2024-02-21T08:00:36;6.90;99.90
4081;DHT22;2055;50.074;8.436;2024-02-21T08:03:02;6.90;99.90
4081;DHT22;2055;50.074;8.436;2024-02-21T08:05:27;7.00;99.90
4081;DHT22;2055;50.074;8.436;2024-02-21T08:07:55;7.00;99.90
4081;DHT22;2055;50.074;8.436;2024-02-21T08:10:20;7.00;93.50
4081;DHT22;2055;50.074;8.436;2024-02-21T08:12:46;6.90;30.90
4081;DHT22;2055;50.074;8.436;2024-02-21T08:15:11;7.20;13.90
4081;DHT22;2055;50.074;8.436;2024-02-21T08:17:38;7.00;1.00
4081;DHT22;2055;50.074;8.436;2024-02-21T08:20:04;7.00;1.00
4081;DHT22;2055;50.074;8.436;2024-02-21T08:22:30;7.30;1.00
4081;DHT22;2055;50.074;8.436;2024-02-21T08:24:56;7.00;1.00
4081;DHT22;2055;50.074;8.436;2024-02-21T08:27:21;7.10;1.00
4081;DHT22;2055;50.074;8.436;2024-02-21T08:29:47;7.00;1.00
4081;DHT22;2055;50.074;8.436;2024-02-21T08:32:13;7.00;1.00
4081;DHT22;2055;50.074;8.436;2024-02-21T08:34:38;7.20;1.00
4081;DHT22;2055;50.074;8.436;2024-02-21T08:37:04;7.10;1.00
4081;DHT22;2055;50.074;8.436;2024-02-21T08:39:29;7.20;99.90
4081;DHT22;2055;50.074;8.436;2024-02-21T08:41:56;7.10;99.90
4081;DHT22;2055;50.074;8.436;2024-02-21T08:44:27;7.00;99.90
4081;DHT22;2055;50.074;8.436;2024-02-21T08:46:53;7.20;99.90
4081;DHT22;2055;50.074;8.436;2024-02-21T08:49:18;7.10;99.90
4081;DHT22;2055;50.074;8.436;2024-02-21T08:51:44;7.50;99.90
4081;DHT22;2055;50.074;8.436;2024-02-21T08:54:09;7.00;1.00
4081;DHT22;2055;50.074;8.436;2024-02-21T08:56:35;7.30;38.60
4081;DHT22;2055;50.074;8.436;2024-02-21T08:59:01;7.10;1.00
4081;DHT22;2055;50.074;8.436;2024-02-21T09:01:27;7.40;1.00
4081;DHT22;2055;50.074;8.436;2024-02-21T09:03:52;7.50;1.00
4081;DHT22;2055;50.074;8.436;2024-02-21T09:06:19;7.60;1.00
4081;DHT22;2055;50.074;8.436;2024-02-21T09:08:47;7.70;1.00
4081;DHT22;2055;50.074;8.436;2024-02-21T09:11:13;7.80;1.00
4081;DHT22;2055;50.074;8.436;2024-02-21T09:13:39;8.00;99.90
4081;DHT22;2055;50.074;8.436;2024-02-21T09:16:05;8.10;99.90
4081;DHT22;2055;50.074;8.436;2024-02-21T09:18:31;8.30;99.90
4081;DHT22;2055;50.074;8.436;2024-02-21T09:20:57;8.20;1.00
4081;DHT22;2055;50.074;8.436;2024-02-21T09:23:25;8.40;1.00
4081;DHT22;2055;50.074;8.436;2024-02-21T09:25:51;8.50;1.00
4081;DHT22;2055;50.074;8.436;2024-02-21T09:28:16;8.50;1.00
4081;DHT22;2055;50.074;8.436;2024-02-21T09:30:42;8.50;5.60
4081;DHT22;2055;50.074;8.436;2024-02-21T09:33:08;8.70;1.00
4081;DHT22;2055;50.074;8.436;2024-02-21T09:35:33;8.90;99.90
4081;DHT22;2055;50.074;8.436;2024-02-21T09:37:59;9.10;99.90
4081;DHT22;2055;50.074;8.436;2024-02-21T09:40:25;9.00;99.90
4081;DHT22;2055;50.074;8.436;2024-02-21T09:43:03;10.80;1.00
4081;DHT22;2055;50.074;8.436;2024-02-21T09:45:30;8.90;1.00
4081;DHT22;2055;50.074;8.436;2024-02-21T09:50:47;9.20;1.00
4081;DHT22;2055;50.074;8.436;2024-02-21T09:53:15;9.20;1.00
4081;DHT22;2055;50.074;8.436;2024-02-21T09:55:41;9.20;1.00
4081;DHT22;2055;50.074;8.436;2024-02-21T09:58:09;9.50;1.00
4081;DHT22;2055;50.074;8.436;2024-02-21T10:00:38;9.50;1.00
4081;DHT22;2055;50.074;8.436;2024-02-21T10:03:04;9.70;1.00
4081;DHT22;2055;50.074;8.436;2024-02-21T10:05:36;9.50;1.00
4081;DHT22;2055;50.074;8.436;2024-02-21T10:08:02;9.40;1.00
4081;DHT22;2055;50.074;8.436;2024-02-21T10:10:28;9.70;1.00
4081;DHT22;2055;50.074;8.436;2024-02-21T10:12:55;9.50;1.00
4081;DHT22;2055;50.074;8.436;2024-02-21T10:15:22;9.50;1.00
4081;DHT22;2055;50.074;8.436;2024-02-21T10:17:58;9.60;1.00
4081;DHT22;2055;50.074;8.436;2024-02-21T10:20:24;9.70;1.00
4081;DHT22;2055;50.074;8.436;2024-02-21T10:23:06;9.90;1.00
4081;DHT22;2055;50.074;8.436;2024-02-21T10:25:35;10.00;1.00
4081;DHT22;2055;50.074;8.436;2024-02-21T10:28:04;10.00;1.00
4081;DHT22;2055;50.074;8.436;2024-02-21T10:30:29;10.00;1.00
4081;DHT22;2055;50.074;8.436;2024-02-21T10:32:55;10.10;1.00
4081;DHT22;2055;50.074;8.436;2024-02-21T10:35:34;11.40;1.00
4081;DHT22;2055;50.074;8.436;2024-02-21T10:38:00;10.30;1.00
4081;DHT22;2055;50.074;8.436;2024-02-21T10:40:27;10.10;1.00
4081;DHT22;2055;50.074;8.436;2024-02-21T10:42:57;10.20;1.00
4081;DHT22;2055;50.074;8.436;2024-02-21T10:45:33;10.60;1.00
4081;DHT22;2055;50.074;8.436;2024-02-21T10:48:11;10.30;99.90
4081;DHT22;2055;50.074;8.436;2024-02-21T10:53:40;10.40;99.90
4081;DHT22;2055;50.074;8.436;2024-02-21T10:56:18;10.60;99.90
4081;DHT22;2055;50.074;8.436;2024-02-21T10:58:47;10.60;99.90
4081;DHT22;2055;50.074;8.436;2024-02-21T11:01:13;10.60;99.90
4081;DHT22;2055;50.074;8.436;2024-02-21T11:03:41;10.70;99.90
4081;DHT22;2055;50.074;8.436;2024-02-21T11:06:10;13.20;99.90
4081;DHT22;2055;50.074;8.436;2024-02-21T11:08:36;11.20;99.90
4081;DHT22;2055;50.074;8.436;2024-02-21T11:11:01;11.30;99.90
4081;DHT22;2055;50.074;8.436;2024-02-21T11:13:40;12.60;99.90
4081;DHT22;2055;50.074;8.436;2024-02-21T11:16:10;11.30;99.90
4081;DHT22;2055;50.074;8.436;2024-02-21T11:18:39;11.60;99.90
4081;DHT22;2055;50.074;8.436;2024-02-21T11:21:05;12.20;99.90
4081;DHT22;2055;50.074;8.436;2024-02-21T11:23:31;12.40;99.90
4081;DHT22;2055;50.074;8.436;2024-02-21T11:28:31;12.90;99.90
4081;DHT22;2055;50.074;8.436;2024-02-21T11:31:13;12.20;99.90
4081;DHT22;2055;50.074;8.436;2024-02-21T11:33:42;11.70;99.90
4081;DHT22;2055;50.074;8.436;2024-02-21T11:36:09;11.40;99.90
4081;DHT22;2055;50.074;8.436;2024-02-21T11:38:35;12.20;99.90
4081;DHT22;2055;50.074;8.436;2024-02-21T11:41:01;11.40;99.90
4081;DHT22;2055;50.074;8.436;2024-02-21T11:43:26;11.10;99.90
4081;DHT22;2055;50.074;8.436;2024-02-21T11:46:00;11.60;99.90
4081;DHT22;2055;50.074;8.436;2024-02-21T11:48:26;10.70;99.90
4081;DHT22;2055;50.074;8.436;2024-02-21T11:50:57;10.90;99.90
4081;DHT22;2055;50.074;8.436;2024-02-21T11:53:23;10.80;99.90
4081;DHT22;2055;50.074;8.436;2024-02-21T11:55:49;10.90;99.90
4081;DHT22;2055;50.074;8.436;2024-02-21T11:58:16;13.60;99.90
4081;DHT22;2055;50.074;8.436;2024-02-21T12:00:41;11.30;99.90
4081;DHT22;2055;50.074;8.436;2024-02-21T12:03:07;11.80;99.90
4081;DHT22;2055;50.074;8.436;2024-02-21T12:05:33;11.60;99.90
4081;DHT22;2055;50.074;8.436;2024-02-21T12:07:59;11.80;99.90
4081;DHT22;2055;50.074;8.436;2024-02-21T12:10:27;12.00;99.90
4081;DHT22;2055;50.074;8.436;2024-02-21T12:12:53;11.60;99.90
4081;DHT22;2055;50.074;8.436;2024-02-21T12:15:23;11.80;99.90
4081;DHT22;2055;50.074;8.436;2024-02-21T12:17:50;11.60;99.90
4081;DHT22;2055;50.074;8.436;2024-02-21T12:20:17;11.70;99.90
4081;DHT22;2055;50.074;8.436;2024-02-21T12:22:42;11.70;99.90
4081;DHT22;2055;50.074;8.436;2024-02-21T12:25:18;12.30;99.90
4081;DHT22;2055;50.074;8.436;2024-02-21T12:27:45;12.60;99.90
4081;DHT22;2055;50.074;8.436;2024-02-21T12:30:11;12.40;99.90
4081;DHT22;2055;50.074;8.436;2024-02-21T12:32:36;12.50;99.90
4081;DHT22;2055;50.074;8.436;2024-02-21T12:35:02;12.50;99.90
4081;DHT22;2055;50.074;8.436;2024-02-21T12:37:29;12.00;99.90
4081;DHT22;2055;50.074;8.436;2024-02-21T12:39:54;11.60;99.90
4081;DHT22;2055;50.074;8.436;2024-02-21T12:42:20;11.70;99.90
4081;DHT22;2055;50.074;8.436;2024-02-21T12:44:46;11.40;99.90
4081;DHT22;2055;50.074;8.436;2024-02-21T12:47:11;11.40;99.90
4081;DHT22;2055;50.074;8.436;2024-02-21T12:49:37;11.40;99.90
4081;DHT22;2055;50.074;8.436;2024-02-21T12:52:03;11.30;99.90
4081;DHT22;2055;50.074;8.436;2024-02-21T12:54:29;11.30;99.90
4081;DHT22;2055;50.074;8.436;2024-02-21T12:56:56;11.10;99.90
4081;DHT22;2055;50.074;8.436;2024-02-21T12:59:21;10.80;99.90
4081;DHT22;2055;50.074;8.436;2024-02-21T13:01:47;10.80;99.90
4081;DHT22;2055;50.074;8.436;2024-02-21T13:04:13;10.90;99.90
4081;DHT22;2055;50.074;8.436;2024-02-21T13:06:38;11.10;99.90
4081;DHT22;2055;50.074;8.436;2024-02-21T13:09:04;14.50;99.90
4081;DHT22;2055;50.074;8.436;2024-02-21T13:11:34;11.90;99.90
4081;DHT22;2055;50.074;8.436;2024-02-21T13:14:00;11.40;99.90
4081;DHT22;2055;50.074;8.436;2024-02-21T13:16:25;11.20;99.90
4081;DHT22;2055;50.074;8.436;2024-02-21T13:18:51;13.10;99.90
4081;DHT22;2055;50.074;8.436;2024-02-21T13:21:17;11.00;99.90
4081;DHT22;2055;50.074;8.436;2024-02-21T13:23:42;11.80;99.90
4081;DHT22;2055;50.074;8.436;2024-02-21T13:26:09;11.20;99.90
4081;DHT22;2055;50.074;8.436;2024-02-21T13:28:35;11.20;99.90
4081;DHT22;2055;50.074;8.436;2024-02-21T13:31:01;11.20;99.90
4081;DHT22;2055;50.074;8.436;2024-02-21T13:33:26;11.10;99.90
4081;DHT22;2055;50.074;8.436;2024-02-21T13:35:53;11.10;99.90
4081;DHT22;2055;50.074;8.436;2024-02-21T13:38:19;11.30;99.90
4081;DHT22;2055;50.074;8.436;2024-02-21T13:40:44;11.40;99.90
4081;DHT22;2055;50.074;8.436;2024-02-21T13:43:10;11.90;99.90
4081;DHT22;2055;50.074;8.436;2024-02-21T13:45:36;15.20;99.90
4081;DHT22;2055;50.074;8.436;2024-02-21T13:48:02;11.70;99.90
4081;DHT22;2055;50.074;8.436;2024-02-21T13:50:30;11.60;99.90
4081;DHT22;2055;50.074;8.436;2024-02-21T13:52:57;11.80;99.90
4081;DHT22;2055;50.074;8.436;2024-02-21T13:55:22;11.70;99.90
4081;DHT22;2055;50.074;8.436;2024-02-21T13:57:51;11.50;99.90
4081;DHT22;2055;50.074;8.436;2024-02-21T14:00:17;11.60;99.90
4081;DHT22;2055;50.074;8.436;2024-02-21T14:02:43;11.60;99.90
4081;DHT22;2055;50.074;8.436;2024-02-21T14:05:09;11.40;99.90
4081;DHT22;2055;50.074;8.436;2024-02-21T14:07:35;14.50;99.90
4081;DHT22;2055;50.074;8.436;2024-02-21T14:10:01;11.40;99.90
4081;DHT22;2055;50.074;8.436;2024-02-21T14:12:26;11.40;99.90
4081;DHT22;2055;50.074;8.436;2024-02-21T14:14:52;11.30;99.90
4081;DHT22;2055;50.074;8.436;2024-02-21T14:17:18;11.30;99.90
4081;DHT22;2055;50.074;8.436;2024-02-21T14:19:44;13.80;99.90
4081;DHT22;2055;50.074;8.436;2024-02-21T14:22:09;13.80;99.90
4081;DHT22;2055;50.074;8.436;2024-02-21T14:24:36;11.10;99.90
4081;DHT22;2055;50.074;8.436;2024-02-21T14:27:02;13.90;99.90
4081;DHT22;2055;50.074;8.436;2024-02-21T14:29:28;11.20;99.90
4081;DHT22;2055;50.074;8.436;2024-02-21T14:31:54;11.20;99.90
4081;DHT22;2055;50.074;8.436;2024-02-21T14:34:20;11.20;99.90
4081;DHT22;2055;50.074;8.436;2024-02-21T14:36:45;11.30;99.90
4081;DHT22;2055;50.074;8.436;2024-02-21T14:39:11;11.30;99.90
4081;DHT22;2055;50.074;8.436;2024-02-21T14:41:36;11.10;99.90
4081;DHT22;2055;50.074;8.436;2024-02-21T14:44:02;11.10;99.90
4081;DHT22;2055;50.074;8.436;2024-02-21T14:46:29;11.20;99.90
4081;DHT22;2055;50.074;8.436;2024-02-21T14:48:55;11.00;99.90
4081;DHT22;2055;50.074;8.436;2024-02-21T14:51:20;10.90;99.90
4081;DHT22;2055;50.074;8.436;2024-02-21T14:53:46;10.90;99.90
4081;DHT22;2055;50.074;8.436;2024-02-21T14:56:15;10.90;99.90
4081;DHT22;2055;50.074;8.436;2024-02-21T14:58:41;11.00;99.90
4081;DHT22;2055;50.074;8.436;2024-02-21T15:01:07;11.00;99.90
4081;DHT22;2055;50.074;8.436;2024-02-21T15:03:33;11.10;99.90
4081;DHT22;2055;50.074;8.436;2024-02-21T15:05:59;11.50;99.90
4081;DHT22;2055;50.074;8.436;2024-02-21T15:08:26;11.00;99.90
4081;DHT22;2055;50.074;8.436;2024-02-21T15:10:53;10.90;99.90
4081;DHT22;2055;50.074;8.436;2024-02-21T15:13:18;11.00;99.90
4081;DHT22;2055;50.074;8.436;2024-02-21T15:15:44;10.80;99.90
4081;DHT22;2055;50.074;8.436;2024-02-21T15:18:09;10.80;99.90
4081;DHT22;2055;50.074;8.436;2024-02-21T15:20:35;10.80;99.90
4081;DHT22;2055;50.074;8.436;2024-02-21T15:23:02;10.80;99.90
4081;DHT22;2055;50.074;8.436;2024-02-21T15:25:30;10.70;99.90
4081;DHT22;2055;50.074;8.436;2024-02-21T15:27:56;10.60;99.90
4081;DHT22;2055;50.074;8.436;2024-02-21T15:30:21;10.60;99.90
4081;DHT22;2055;50.074;8.436;2024-02-21T15:32:47;10.50;99.90
4081;DHT22;2055;50.074;8.436;2024-02-21T15:35:12;10.40;99.90
4081;DHT22;2055;50.074;8.436;2024-02-21T15:37:39;10.40;99.90
4081;DHT22;2055;50.074;8.436;2024-02-21T15:40:05;10.30;99.90
4081;DHT22;2055;50.074;8.436;2024-02-21T15:42:33;10.30;99.90
4081;DHT22;2055;50.074;8.436;2024-02-21T15:44:59;10.30;99.90
4081;DHT22;2055;50.074;8.436;2024-02-21T15:47:27;10.30;99.90
4081;DHT22;2055;50.074;8.436;2024-02-21T15:49:53;10.20;99.90
4081;DHT22;2055;50.074;8.436;2024-02-21T15:52:18;10.20;99.90
4081;DHT22;2055;50.074;8.436;2024-02-21T15:54:44;10.20;99.90
4081;DHT22;2055;50.074;8.436;2024-02-21T15:57:09;10.10;99.90
4081;DHT22;2055;50.074;8.436;2024-02-21T15:59:35;10.30;99.90
4081;DHT22;2055;50.074;8.436;2024-02-21T16:02:01;10.10;99.90
4081;DHT22;2055;50.074;8.436;2024-02-21T16:04:27;13.20;99.90
4081;DHT22;2055;50.074;8.436;2024-02-21T16:06:54;10.00;99.90
4081;DHT22;2055;50.074;8.436;2024-02-21T16:09:20;10.00;99.90
4081;DHT22;2055;50.074;8.436;2024-02-21T16:11:45;10.00;99.90
4081;DHT22;2055;50.074;8.436;2024-02-21T16:14:11;9.90;99.90
4081;DHT22;2055;50.074;8.436;2024-02-21T16:16:37;10.00;99.90